Time;durP1;ratioP1;P1;durP2;ratioP2;P2;SDS_P1;SDS_P2;PMS_P1;PMS_P2;Temp;Humidity;BMP_temperature;BMP_pressure;BME280_temperature;BME280_humidity;BME280_pressure;Samples;Min_cycle;Max_cycle;Signal;HPM_P1;HPM_P2
2023/08/17 00:00:26;;;;;;;5.88;2.60;;;;;;;24.19;100.00;101550.84;5040923;28;20223;-46
2023/08/17 00:02:53;;;;;;;6.10;2.25;;;;;;;24.07;100.00;101532.81;5049224;28;20049;-46
2023/08/17 00:05:19;;;;;;;3.88;2.15;;;;;;;24.16;100.00;101512.84;5057798;28;20052;-46
2023/08/17 00:07:46;;;;;;;5.78;2.10;;;;;;;24.16;100.00;101512.84;5050442;28;20103;-44
2023/08/17 00:10:12;;;;;;;4.15;1.58;;;;;;;24.08;100.00;101516.59;5051538;28;20090;-45
2023/08/17 00:12:40;;;;;;;3.85;2.08;;;;;;;24.19;100.00;101536.63;5034627;28;20053;-45
2023/08/17 00:15:07;;;;;;;4.25;1.85;;;;;;;24.23;100.00;101546.56;5046597;28;20049;-45
2023/08/17 00:17:33;;;;;;;6.93;2.42;;;;;;;24.23;100.00;101538.03;5046942;28;20048;-45
2023/08/17 00:20:00;;;;;;;3.53;2.08;;;;;;;24.19;100.00;101542.31;5037723;28;20121;-48
2023/08/17 00:22:26;;;;;;;3.97;2.00;;;;;;;24.12;100.00;101545.56;5028498;28;20077;-44
2023/08/17 00:24:53;;;;;;;6.00;2.75;;;;;;;24.10;100.00;101542.44;5035138;28;20499;-44
2023/08/17 00:27:19;;;;;;;4.43;2.20;;;;;;;24.12;100.00;101545.56;5043880;28;20075;-45
2023/08/17 00:29:46;;;;;;;4.68;2.03;;;;;;;24.11;100.00;101535.50;5040785;28;20715;-43
2023/08/17 00:32:12;;;;;;;5.03;2.00;;;;;;;24.17;100.00;101525.00;5036934;28;20068;-46
2023/08/17 00:34:39;;;;;;;3.33;2.00;;;;;;;24.16;100.00;101518.53;5043371;28;20123;-45
2023/08/17 00:37:05;;;;;;;4.43;2.42;;;;;;;24.19;100.00;101522.44;5036759;28;20541;-43
2023/08/17 00:39:32;;;;;;;3.13;1.90;;;;;;;24.04;100.00;101524.53;5043301;28;20048;-44
2023/08/17 00:41:58;;;;;;;4.65;1.90;;;;;;;24.06;100.00;101522.75;5044573;28;20128;-43
2023/08/17 00:44:25;;;;;;;3.85;2.20;;;;;;;24.03;100.00;101522.97;5040965;28;20080;-47
2023/08/17 00:46:52;;;;;;;4.50;2.22;;;;;;;24.14;100.00;101517.47;5035242;28;20072;-46
2023/08/17 00:49:18;;;;;;;3.78;1.83;;;;;;;24.24;100.00;101524.63;5035343;28;20049;-45
2023/08/17 00:51:45;;;;;;;4.93;2.17;;;;;;;24.14;100.00;101535.28;5040379;28;20087;-48
2023/08/17 00:54:12;;;;;;;4.95;2.05;;;;;;;24.15;100.00;101542.53;5033418;28;20056;-46
2023/08/17 00:56:38;;;;;;;3.42;1.88;;;;;;;24.24;100.00;101550.19;5038282;28;20052;-44
2023/08/17 00:59:05;;;;;;;3.58;2.40;;;;;;;24.14;100.00;101545.88;5045996;28;20052;-46
2023/08/17 01:01:32;;;;;;;4.20;2.10;;;;;;;24.12;100.00;101543.50;5037554;28;20099;-46
2023/08/17 01:03:58;;;;;;;4.75;2.40;;;;;;;24.07;100.00;101543.44;5033754;28;20053;-44
2023/08/17 01:06:25;;;;;;;7.25;2.25;;;;;;;24.17;100.00;101547.72;5038810;28;20057;-47
2023/08/17 01:08:52;;;;;;;3.92;2.05;;;;;;;24.22;100.00;101547.84;5041014;28;20060;-46
2023/08/17 01:11:34;;;;;;;4.72;1.83;;;;;;;24.21;100.00;101528.41;5027856;28;20140;-44
2023/08/17 01:14:12;;;;;;;3.85;1.90;;;;;;;24.24;100.00;101521.78;5034875;28;20562;-44
2023/08/17 01:16:47;;;;;;;4.97;1.80;;;;;;;24.15;100.00;101513.34;5038948;28;20483;-44
2023/08/17 01:19:21;;;;;;;;;;;;;;;24.12;100.00;101502.94;5046405;28;20103;-45
2023/08/17 01:21:50;;;;;;;3.03;1.92;;;;;;;24.09;100.00;101496.22;5039752;28;20011;-46
2023/08/17 01:24:17;;;;;;;3.33;2.13;;;;;;;24.24;100.00;101493.38;5047872;28;20045;-47
2023/08/17 01:26:43;;;;;;;6.80;2.10;;;;;;;24.19;100.00;101488.34;5046686;28;20562;-46
2023/08/17 01:29:10;;;;;;;4.97;2.17;;;;;;;24.14;100.00;101494.72;5041743;28;20072;-49
2023/08/17 01:31:44;;;;;;;3.97;2.10;;;;;;;24.18;100.00;101489.63;5044773;28;20139;-46
2023/08/17 01:34:18;;;;;;;3.85;1.70;;;;;;;24.19;100.00;101491.19;5037340;28;20046;-45
2023/08/17 01:36:53;;;;;;;5.80;2.17;;;;;;;24.23;100.00;101497.47;5035671;28;20148;-46
2023/08/17 01:39:26;;;;;;;7.47;1.98;;;;;;;24.19;100.00;101491.19;5046955;28;20103;-43
2023/08/17 01:41:56;;;;;;;3.58;2.05;;;;;;;24.22;100.00;101496.69;5036632;28;20125;-45
2023/08/17 01:44:23;;;;;;;3.17;1.67;;;;;;;24.14;100.00;101484.13;5035879;28;20474;-46
2023/08/17 01:46:49;;;;;;;4.65;2.17;;;;;;;24.19;100.00;101476.97;5034590;28;20689;-45
2023/08/17 01:49:16;;;;;;;3.72;1.83;;;;;;;24.10;100.00;101472.19;5037267;28;20045;-44
2023/08/17 01:51:42;;;;;;;3.38;1.90;;;;;;;24.06;100.00;101476.50;5040415;28;20124;-44
2023/08/17 01:54:09;;;;;;;4.32;1.75;;;;;;;24.09;100.00;101476.31;5040166;28;20057;-44
2023/08/17 09:59:03;;;;;;;10.35;3.80;;;;;;;22.67;100.00;101531.88;5115205;27;20940;-39
2023/08/17 10:01:30;;;;;;;10.18;4.13;;;;;;;22.90;100.00;101535.97;5109794;27;20132;-39
2023/08/17 10:03:59;;;;;;;11.85;4.50;;;;;;;22.95;100.00;101530.41;5116355;27;20051;-38
2023/08/17 10:06:30;;;;;;;9.00;4.03;;;;;;;23.02;100.00;101529.31;5109731;27;20092;-41
2023/08/17 10:08:58;;;;;;;9.68;4.05;;;;;;;23.06;100.00;101525.03;5111502;27;20075;-40
2023/08/17 10:11:26;;;;;;;8.45;3.70;;;;;;;23.10;100.00;101530.50;5118841;27;20125;-41
2023/08/17 10:14:02;;;;;;;8.95;3.58;;;;;;;23.10;100.00;101530.50;5093443;27;20071;-43
2023/08/17 10:16:40;;;;;;;9.93;4.15;;;;;;;23.17;100.00;101535.78;5113789;27;20047;-39
2023/08/17 10:19:30;;;;;;;11.20;3.92;;;;;;;23.21;100.00;101519.38;5111170;27;20071;-40
2023/08/17 10:22:06;;;;;;;10.73;3.65;;;;;;;23.23;100.00;101526.16;5110864;27;20082;-40
2023/08/17 10:24:36;;;;;;;10.15;4.28;;;;;;;23.20;100.00;101532.00;5108099;27;20090;-41
2023/08/17 10:27:05;;;;;;;11.18;4.45;;;;;;;23.18;100.00;101523.16;5115497;27;20136;-39
2023/08/17 10:29:33;;;;;;;13.70;4.35;;;;;;;23.26;100.00;101530.06;5115030;27;20139;-40
2023/08/17 10:32:01;;;;;;;7.82;3.65;;;;;;;23.32;100.00;101525.28;5110403;27;20860;-41
2023/08/17 10:34:28;;;;;;;11.38;4.13;;;;;;;23.34;100.00;101517.03;5105845;27;20075;-40
2023/08/17 10:36:57;;;;;;;6.88;3.65;;;;;;;23.34;100.00;101523.50;5117436;27;20062;-44
2023/08/17 10:39:28;;;;;;;9.70;3.88;;;;;;;23.40;100.00;101529.28;5115201;27;20043;-39
2023/08/17 10:41:57;;;;;;;12.48;4.53;;;;;;;23.37;100.00;101528.22;5108163;27;20051;-41
2023/08/17 10:44:44;;;;;;;10.50;4.82;;;;;;;23.44;100.00;101521.38;5114573;27;20079;-40
2023/08/17 10:47:28;;;;;;;11.48;4.70;;;;;;;23.44;100.00;101513.66;5108363;27;20122;-40
2023/08/17 10:50:04;;;;;;;9.45;3.90;;;;;;;23.45;100.00;101518.03;5127992;27;20071;-40
2023/08/17 10:52:32;;;;;;;14.10;4.82;;;;;;;23.45;100.00;101508.72;5105928;27;20079;-40
2023/08/17 10:55:07;;;;;;;7.90;3.63;;;;;;;23.44;100.00;101504.34;5112941;27;20048;-39
2023/08/17 10:57:35;;;;;;;8.73;4.10;;;;;;;23.48;100.00;101517.06;5108210;27;20494;-43
2023/08/17 11:00:13;;;;;;;8.80;3.42;;;;;;;23.52;100.00;101520.50;5109581;27;20093;-40
2023/08/17 11:02:54;;;;;;;7.47;3.60;;;;;;;23.50;100.00;101516.59;5109365;27;20075;-37
2023/08/17 11:05:58;;;;;;;7.20;3.63;;;;;;;23.52;100.00;101517.66;5107345;27;20055;-38
2023/08/17 11:08:38;;;;;;;12.20;4.57;;;;;;;23.52;100.00;101516.88;5107361;27;20051;-39
2023/08/17 11:11:13;;;;;;;7.93;3.58;;;;;;;23.47;100.00;101515.50;5101846;28;20436;-41
2023/08/17 11:13:44;;;;;;;10.23;3.70;;;;;;;23.59;100.00;101505.16;5096453;28;20129;-39
2023/08/17 11:16:12;;;;;;;11.05;3.58;;;;;;;23.60;100.00;101516.03;5095769;27;20056;-38
2023/08/17 11:18:44;;;;;;;9.57;3.60;;;;;;;23.58;100.00;101512.06;5098348;28;20066;-38
2023/08/17 11:21:12;;;;;;;8.73;3.83;;;;;;;23.55;100.00;101513.84;5093152;28;20493;-37
2023/08/17 11:23:44;;;;;;;13.05;5.18;;;;;;;23.45;100.00;101509.53;5097918;28;20131;-40
2023/08/17 11:26:11;;;;;;;17.40;6.13;;;;;;;23.29;100.00;101512.06;5097448;28;20056;-38
2023/08/17 11:28:40;;;;;;;13.00;6.00;;;;;;;23.42;100.00;101507.66;5102946;28;20047;-37
2023/08/17 11:31:11;;;;;;;16.88;6.20;;;;;;;23.42;100.00;101515.41;5092436;28;20056;-41
2023/08/17 11:33:39;;;;;;;13.32;6.45;;;;;;;23.53;100.00;101513.53;5090578;28;20581;-38
2023/08/17 11:36:09;;;;;;;16.98;5.38;;;;;;;23.60;100.00;101518.88;5090926;28;20044;-37
2023/08/17 11:38:38;;;;;;;16.35;5.63;;;;;;;23.57;100.00;101519.81;5104677;28;20067;-37
2023/08/17 11:41:08;;;;;;;14.35;5.38;;;;;;;23.58;100.00;101526.25;5093276;28;20056;-39
2023/08/17 11:43:35;;;;;;;14.50;6.15;;;;;;;23.52;100.00;101511.22;5092712;28;20051;-40
2023/08/17 11:46:02;;;;;;;11.95;5.30;;;;;;;23.56;100.00;101523.16;5091169;28;20055;-38
2023/08/17 11:48:29;;;;;;;14.52;5.57;;;;;;;23.71;100.00;101523.97;5094251;28;20571;-39
2023/08/17 11:51:03;;;;;;;13.77;5.32;;;;;;;23.77;100.00;101531.31;5094195;28;20047;-44
2023/08/17 11:53:39;;;;;;;15.05;5.43;;;;;;;23.78;100.00;101521.50;5092827;28;20132;-39
2023/08/17 11:56:06;;;;;;;12.57;5.70;;;;;;;23.72;100.00;101519.84;5093548;28;20513;-39
2023/08/17 11:58:41;;;;;;;12.60;5.65;;;;;;;23.69;100.00;101526.50;5093809;28;20276;-39
2023/08/17 12:01:12;;;;;;;12.52;5.43;;;;;;;23.70;100.00;101528.84;5090101;28;20124;-37
2023/08/17 12:03:40;;;;;;;14.73;5.50;;;;;;;23.71;100.00;101524.75;5094658;28;20055;-37
2023/08/17 12:06:08;;;;;;;10.73;4.72;;;;;;;23.70;100.00;101528.06;5101497;28;20105;-37
2023/08/17 12:08:35;;;;;;;9.50;4.90;;;;;;;23.68;100.00;101522.88;5097215;27;20093;-38
2023/08/17 12:11:04;;;;;;;10.80;4.85;;;;;;;23.77;100.00;101525.63;5110737;27;20590;-38
2023/08/17 12:13:33;;;;;;;12.02;4.78;;;;;;;23.80;100.00;101518.94;5093671;27;20051;-38
2023/08/17 12:16:00;;;;;;;10.30;4.65;;;;;;;23.81;100.00;101514.06;5102676;27;20463;-40
2023/08/17 12:18:27;;;;;;;8.93;4.60;;;;;;;23.84;100.00;101527.28;5094986;28;20072;-37
2023/08/17 12:20:54;;;;;;;11.63;4.72;;;;;;;23.80;100.00;101521.03;5096423;27;20052;-40
2023/08/17 12:23:21;;;;;;;8.52;4.55;;;;;;;23.83;100.00;101525.72;5092255;28;20054;-37
2023/08/17 12:25:53;;;;;;;10.75;4.75;;;;;;;23.82;100.00;101518.47;5093409;28;20055;-38
2023/08/17 12:28:19;;;;;;;13.18;5.85;;;;;;;23.79;100.00;101513.75;5090171;28;20098;-38
2023/08/17 12:30:46;;;;;;;11.35;5.50;;;;;;;23.73;100.00;101512.91;5098404;27;20052;-36
2023/08/17 12:33:12;;;;;;;13.13;5.03;;;;;;;23.74;100.00;101508.78;5096074;28;20130;-41
2023/08/17 12:35:39;;;;;;;10.80;4.72;;;;;;;23.70;100.00;101508.19;5089380;28;20048;-38
2023/08/17 12:38:06;;;;;;;10.00;5.05;;;;;;;23.67;100.00;101520.53;5089645;28;20048;-39
2023/08/17 12:40:32;;;;;;;11.95;6.57;;;;;;;23.73;100.00;101516.50;5094619;28;20051;-38
2023/08/17 12:42:59;;;;;;;11.90;5.57;;;;;;;23.81;100.00;101505.56;5098323;28;20048;-37
2023/08/17 12:45:26;;;;;;;14.45;5.57;;;;;;;23.84;100.00;101516.72;5095953;28;20047;-39
2023/08/17 12:47:54;;;;;;;13.25;5.10;;;;;;;23.81;100.00;101512.03;5100530;28;20044;-41
2023/08/17 12:50:20;;;;;;;9.95;5.05;;;;;;;23.87;100.00;101506.44;5095715;28;20665;-39
2023/08/17 12:52:47;;;;;;;12.85;4.78;;;;;;;23.85;100.00;101501.25;5105207;28;20426;-38
2023/08/17 12:55:14;;;;;;;9.52;5.00;;;;;;;23.89;100.00;101501.03;5091409;28;20047;-38
2023/08/17 12:57:40;;;;;;;9.80;4.88;;;;;;;23.91;100.00;101509.84;5089893;28;20142;-39
2023/08/17 13:00:08;;;;;;;10.38;4.82;;;;;;;23.91;100.00;101504.16;5092427;28;20052;-39
2023/08/17 13:02:35;;;;;;;9.88;4.60;;;;;;;23.93;100.00;101504.47;5094491;28;20558;-40
2023/08/17 13:05:02;;;;;;;8.98;4.55;;;;;;;23.93;100.00;101502.41;5099984;28;20574;-38
2023/08/17 13:07:29;;;;;;;11.95;4.55;;;;;;;23.97;100.00;101502.22;5094962;28;20647;-38
2023/08/17 13:09:55;;;;;;;9.20;4.60;;;;;;;23.96;100.00;101503.47;5092723;28;20052;-41
2023/08/17 13:12:22;;;;;;;11.30;4.75;;;;;;;23.96;100.00;101506.31;5094097;28;20075;-39
2023/08/17 13:14:48;;;;;;;12.07;4.88;;;;;;;23.92;100.00;101500.84;5100381;28;20055;-40
2023/08/17 13:17:17;;;;;;;10.32;3.97;;;;;;;23.93;100.00;101502.41;5093307;28;20056;-41
2023/08/17 13:19:43;;;;;;;12.20;4.70;;;;;;;23.90;100.00;101514.72;5089709;28;20518;-42
2023/08/17 13:22:10;;;;;;;14.27;4.70;;;;;;;24.04;100.00;101513.16;5100890;28;20665;-40
2023/08/17 13:24:37;;;;;;;14.60;4.53;;;;;;;23.91;100.00;101509.84;5088864;28;20048;-38
2023/08/17 13:27:04;;;;;;;17.58;6.47;;;;;;;23.93;100.00;101496.72;5093214;28;20052;-42
2023/08/17 13:29:31;;;;;;;20.42;8.57;;;;;;;24.05;100.00;101500.53;5091711;28;20401;-41
2023/08/17 13:31:58;;;;;;;15.25;7.90;;;;;;;23.85;100.00;101498.41;5100326;28;20075;-39
2023/08/17 13:34:24;;;;;;;14.88;7.50;;;;;;;23.80;100.00;101499.06;5097449;28;20048;-38
2023/08/17 13:36:51;;;;;;;16.33;7.45;;;;;;;23.97;100.00;101508.66;5104566;27;20048;-39
2023/08/17 13:39:17;;;;;;;18.17;7.75;;;;;;;24.13;100.00;101504.53;5107368;27;20497;-39
2023/08/17 13:41:44;;;;;;;13.30;6.43;;;;;;;24.06;100.00;101516.28;5098987;27;20587;-37
2023/08/17 13:44:10;;;;;;;13.70;6.72;;;;;;;24.06;100.00;101517.06;5089426;28;20078;-38
2023/08/17 13:46:37;;;;;;;13.57;6.32;;;;;;;24.07;100.00;101512.19;5099634;28;20097;-37
2023/08/17 13:49:04;;;;;;;15.32;6.57;;;;;;;24.06;100.00;101514.22;5097520;28;20121;-36
2023/08/17 13:51:30;;;;;;;13.18;6.38;;;;;;;24.11;100.00;101518.44;5097105;28;20072;-40
2023/08/17 13:53:57;;;;;;;11.73;6.15;;;;;;;24.18;100.00;101515.19;5092744;28;20557;-40
2023/08/17 13:56:24;;;;;;;13.68;5.82;;;;;;;24.12;100.00;101515.09;5101085;28;20497;-38
2023/08/17 13:58:53;;;;;;;12.18;6.18;;;;;;;24.16;100.00;101512.03;5097980;28;20500;-41
2023/08/17 14:01:19;;;;;;;14.63;6.95;;;;;;;24.09;100.00;101510.41;5094074;28;20063;-39
2023/08/17 14:03:46;;;;;;;13.70;6.32;;;;;;;24.03;100.00;101503.09;5097852;28;20148;-38
2023/08/17 14:06:13;;;;;;;18.42;7.93;;;;;;;23.87;100.00;101504.34;5100557;28;20054;-38
2023/08/17 14:08:39;;;;;;;15.20;7.10;;;;;;;23.91;100.00;101509.84;5098129;28;20482;-39
2023/08/17 14:11:06;;;;;;;14.20;8.40;;;;;;;23.88;100.00;101502.31;5099667;28;20071;-39
2023/08/17 14:13:34;;;;;;;18.08;7.68;;;;;;;23.84;100.00;101496.84;5095367;28;20494;-41
2023/08/17 14:16:00;;;;;;;11.85;6.45;;;;;;;23.85;100.00;101501.25;5100435;28;20138;-39
2023/08/17 14:18:27;;;;;;;12.45;6.85;;;;;;;23.86;100.00;101496.34;5092738;28;20046;-36
2023/08/17 14:20:53;;;;;;;16.17;6.32;;;;;;;23.86;100.00;101499.97;5098344;28;20132;-38
2023/08/17 14:23:20;;;;;;;13.60;6.10;;;;;;;23.85;100.00;101500.44;5088288;28;20075;-38
2023/08/17 14:25:46;;;;;;;12.07;6.10;;;;;;;23.84;100.00;101504.56;5091957;28;20075;-38
2023/08/17 14:28:13;;;;;;;15.35;6.22;;;;;;;23.99;100.00;101508.97;5087877;28;20140;-38
2023/08/17 14:30:39;;;;;;;12.82;6.50;;;;;;;24.06;100.00;101493.56;5090378;28;20109;-40
2023/08/17 14:33:06;;;;;;;13.10;6.35;;;;;;;24.07;100.00;101498.75;5097546;28;20048;-39
2023/08/17 14:35:33;;;;;;;9.85;5.68;;;;;;;24.08;100.00;101497.50;5099351;28;20054;-38
2023/08/17 14:38:01;;;;;;;11.32;5.57;;;;;;;24.11;100.00;101492.88;5092117;28;20155;-40
2023/08/17 14:40:28;;;;;;;14.63;6.38;;;;;;;24.20;100.00;101493.53;5098854;28;20526;-38
2023/08/17 14:42:55;;;;;;;13.45;6.78;;;;;;;24.12;100.00;101474.53;5070407;28;20052;-38
2023/08/17 14:45:21;;;;;;;10.55;5.82;;;;;;;24.10;100.00;101477.88;5092982;28;20040;-38
2023/08/17 14:47:48;;;;;;;11.55;6.15;;;;;;;24.11;100.00;101482.31;5091272;28;20055;-38
2023/08/17 14:50:15;;;;;;;12.73;6.63;;;;;;;24.13;100.00;101478.97;5099302;28;20139;-40
2023/08/17 14:52:41;;;;;;;13.10;6.53;;;;;;;24.15;100.00;101482.09;5099714;28;20048;-41
2023/08/17 14:55:09;;;;;;;11.93;6.25;;;;;;;24.08;100.00;101477.59;5101735;28;20063;-40
2023/08/17 14:57:35;;;;;;;12.27;6.90;;;;;;;24.14;100.00;101474.84;5097242;27;20043;-39
2023/08/17 15:00:03;;;;;;;13.95;6.22;;;;;;;24.12;100.00;101472.50;5093918;28;20151;-37
2023/08/17 15:02:30;;;;;;;13.95;6.95;;;;;;;24.12;100.00;101468.88;5107270;27;20463;-38
2023/08/17 15:04:57;;;;;;;12.35;6.47;;;;;;;24.10;100.00;101466.50;5093286;28;20052;-38
2023/08/17 15:07:23;;;;;;;16.00;7.25;;;;;;;24.09;100.00;101467.81;5105531;27;20048;-37
2023/08/17 15:09:51;;;;;;;15.32;6.20;;;;;;;24.20;100.00;101458.66;5100974;28;20040;-39
2023/08/17 15:12:17;;;;;;;11.50;6.43;;;;;;;24.24;100.00;101459.28;5106849;28;20506;-39
2023/08/17 15:14:44;;;;;;;13.25;6.45;;;;;;;24.18;100.00;101452.69;5107568;28;20104;-38
2023/08/17 15:17:12;;;;;;;11.40;5.72;;;;;;;24.24;100.00;101453.59;5094923;28;20510;-39
2023/08/17 15:19:39;;;;;;;12.43;5.30;;;;;;;24.26;100.00;101460.34;5093653;28;20059;-38
2023/08/17 15:22:07;;;;;;;12.07;5.93;;;;;;;24.24;100.00;101454.34;5096798;28;20052;-38
2023/08/17 15:24:33;;;;;;;12.55;6.13;;;;;;;24.28;100.00;101454.16;5091403;28;20138;-39
2023/08/17 15:27:00;;;;;;;14.63;6.40;;;;;;;24.29;100.00;101455.72;5101473;28;20791;-38
2023/08/17 15:29:26;;;;;;;11.50;5.63;;;;;;;24.27;100.00;101455.44;5095870;28;20109;-38
2023/08/17 15:31:53;;;;;;;14.05;5.88;;;;;;;24.27;100.00;101444.84;5095876;28;20532;-40
2023/08/17 15:34:19;;;;;;;10.57;5.57;;;;;;;24.30;100.00;101458.06;5093739;28;20653;-40
2023/08/17 15:36:46;;;;;;;14.30;6.30;;;;;;;24.24;100.00;101448.66;5099362;28;20056;-37
2023/08/17 15:39:13;;;;;;;9.80;5.47;;;;;;;24.30;100.00;101448.78;5094826;28;20067;-39
2023/08/17 15:41:39;;;;;;;12.75;5.35;;;;;;;24.27;100.00;101449.75;5095940;28;20060;-37
2023/08/17 15:44:06;;;;;;;11.18;6.00;;;;;;;24.32;100.00;101449.03;5104076;28;20109;-39
2023/08/17 15:46:32;;;;;;;10.63;5.53;;;;;;;24.34;100.00;101440.81;5091890;28;20117;-40
2023/08/17 15:48:59;;;;;;;10.00;5.72;;;;;;;24.16;100.00;101436.13;5083320;28;20518;-39
2023/08/17 15:51:27;;;;;;;11.40;5.55;;;;;;;24.13;100.00;101442.03;5099623;28;20043;-39
2023/08/17 15:53:54;;;;;;;11.05;5.43;;;;;;;24.12;100.00;101437.63;5108886;28;20108;-39
2023/08/17 15:56:21;;;;;;;9.85;5.50;;;;;;;24.16;100.00;101435.34;5094956;28;20520;-38
2023/08/17 15:58:48;;;;;;;11.32;5.78;;;;;;;24.16;100.00;101429.66;5101051;28;20105;-37
2023/08/17 16:01:14;;;;;;;9.65;5.28;;;;;;;24.10;100.00;101423.91;5090756;28;20471;-38
2023/08/17 16:03:41;;;;;;;9.30;4.72;;;;;;;24.04;100.00;101413.75;5095531;28;20048;-37
2023/08/17 16:06:08;;;;;;;11.45;4.78;;;;;;;23.98;100.00;101418.56;5090638;28;20146;-37
2023/08/17 16:08:34;;;;;;;8.82;4.72;;;;;;;23.98;100.00;101410.03;5092390;27;20111;-40
2023/08/17 16:11:15;;;;;;;9.20;5.10;;;;;;;24.03;100.00;101409.34;5090841;28;20671;-39
2023/08/17 16:13:42;;;;;;;11.50;4.93;;;;;;;23.90;100.00;101409.66;5091383;28;20472;-39
2023/08/17 16:16:12;;;;;;;10.30;4.95;;;;;;;23.92;100.00;101407.13;5092718;28;20261;-38
2023/08/17 16:18:39;;;;;;;8.85;4.85;;;;;;;23.92;100.00;101404.28;5095693;28;20048;-39
2023/08/17 16:21:06;;;;;;;10.70;4.88;;;;;;;23.88;100.00;101402.91;5097984;28;20083;-40
2023/08/17 16:23:41;;;;;;;13.57;4.93;;;;;;;23.90;100.00;101406.06;5098538;28;20059;-40
2023/08/17 16:26:08;;;;;;;10.10;4.97;;;;;;;23.88;100.00;101403.72;5094223;28;20055;-40
2023/08/17 16:28:34;;;;;;;9.15;5.00;;;;;;;23.82;100.00;101405.69;5090286;28;20464;-38
2023/08/17 16:31:01;;;;;;;10.63;5.15;;;;;;;23.81;100.00;101403.34;5100207;28;20051;-37
2023/08/17 16:33:31;;;;;;;10.88;6.10;;;;;;;23.81;100.00;101404.13;5098492;28;20077;-37
2023/08/17 16:35:58;;;;;;;11.57;5.85;;;;;;;23.83;100.00;101401.56;5091286;28;20108;-39
2023/08/17 16:38:24;;;;;;;9.45;5.13;;;;;;;23.76;100.00;101401.19;5090064;28;20040;-37
2023/08/17 16:40:51;;;;;;;11.20;5.20;;;;;;;23.82;100.00;101393.53;5090391;28;20131;-38
2023/08/17 16:43:19;;;;;;;8.98;4.40;;;;;;;23.83;100.00;101398.72;5103686;28;20070;-40
2023/08/17 16:45:46;;;;;;;7.93;5.05;;;;;;;23.82;100.00;101388.66;5097964;28;20130;-39
2023/08/17 16:48:13;;;;;;;8.75;5.38;;;;;;;23.81;100.00;101391.97;5091832;28;20048;-38
2023/08/17 16:50:40;;;;;;;7.78;4.50;;;;;;;23.81;100.00;101387.09;5076158;28;20044;-39
2023/08/17 16:53:06;;;;;;;8.63;4.80;;;;;;;23.84;100.00;101379.63;5090331;28;20440;-38
2023/08/17 16:55:34;;;;;;;7.75;4.50;;;;;;;23.77;100.00;101385.72;5090004;28;20044;-39
2023/08/17 16:58:00;;;;;;;7.78;4.63;;;;;;;23.83;100.00;101383.75;5090603;28;20093;-38
2023/08/17 17:00:27;;;;;;;9.43;5.10;;;;;;;23.77;100.00;101386.53;5091064;28;20043;-38
2023/08/17 17:02:54;;;;;;;11.27;5.80;;;;;;;23.78;100.00;101376.72;5100956;28;20044;-40
2023/08/17 17:05:20;;;;;;;8.82;4.90;;;;;;;23.76;100.00;101369.97;5088996;28;20071;-38
2023/08/17 17:07:47;;;;;;;10.88;5.60;;;;;;;23.76;100.00;101372.81;5104712;28;20039;-38
2023/08/17 17:10:14;;;;;;;10.57;5.43;;;;;;;23.74;100.00;101376.16;5097502;28;20043;-37
2023/08/17 17:12:40;;;;;;;11.27;4.93;;;;;;;23.94;100.00;101373.34;5100871;28;20564;-37
2023/08/17 17:15:07;;;;;;;20.08;5.68;;;;;;;24.02;100.00;101380.16;5094360;28;20052;-37
2023/08/17 17:17:34;;;;;;;10.43;5.45;;;;;;;24.05;100.00;101372.69;5096291;28;20489;-39
2023/08/17 17:20:01;;;;;;;9.30;4.80;;;;;;;24.05;100.00;101382.03;5092132;28;20040;-37
2023/08/17 17:22:28;;;;;;;8.05;4.53;;;;;;;24.09;100.00;101381.78;5080086;28;20453;-38
2023/08/17 17:24:55;;;;;;;7.53;4.35;;;;;;;24.10;100.00;101381.28;5099941;28;20888;-37
2023/08/17 17:27:21;;;;;;;7.40;4.30;;;;;;;24.16;100.00;101385.00;5072152;28;20040;-44
2023/08/17 17:29:48;;;;;;;6.63;4.10;;;;;;;24.18;100.00;101388.16;5097970;28;20104;-45
2023/08/17 17:32:14;;;;;;;11.80;5.82;;;;;;;24.09;100.00;101393.94;5090037;28;20120;-46
2023/08/17 17:34:41;;;;;;;13.75;6.70;;;;;;;23.99;100.00;101397.41;5088690;28;20051;-45
2023/08/17 17:37:07;;;;;;;11.55;5.75;;;;;;;24.04;100.00;101402.41;5092875;28;20079;-46
2023/08/17 17:39:34;;;;;;;16.25;6.45;;;;;;;24.05;100.00;101401.91;5092138;28;20078;-44
2023/08/17 17:42:00;;;;;;;11.13;5.65;;;;;;;24.14;100.00;101401.75;5089373;28;20059;-45
2023/08/17 17:44:27;;;;;;;10.82;5.38;;;;;;;24.18;100.00;101410.06;5096986;28;20047;-46
2023/08/17 17:46:54;;;;;;;11.73;5.80;;;;;;;24.18;100.00;101410.06;5098485;28;20098;-43
2023/08/17 17:49:20;;;;;;;10.27;5.45;;;;;;;24.18;100.00;101402.34;5090213;28;20040;-46
2023/08/17 17:51:48;;;;;;;10.98;5.40;;;;;;;24.06;100.00;101405.50;5088990;28;20048;-45
2023/08/17 17:54:15;;;;;;;9.43;5.53;;;;;;;23.97;100.00;101397.88;5092787;28;20079;-46
2023/08/17 17:56:43;;;;;;;11.68;6.85;;;;;;;23.75;100.00;101405.28;5098727;28;20476;-42
2023/08/17 17:59:11;;;;;;;15.68;8.18;;;;;;;23.73;100.00;101413.53;5080222;28;20146;-44
2023/08/17 18:01:38;;;;;;;15.52;8.23;;;;;;;23.73;100.00;101408.63;5095929;28;20098;-43
2023/08/17 18:04:04;;;;;;;16.08;8.38;;;;;;;23.62;100.00;101405.63;5070465;28;20052;-44
2023/08/17 18:06:32;;;;;;;18.00;7.53;;;;;;;23.56;100.00;101406.78;5090046;28;20044;-40
2023/08/17 18:08:59;;;;;;;16.15;8.30;;;;;;;23.54;100.00;101410.09;5096886;28;20056;-43
2023/08/17 18:11:25;;;;;;;15.52;8.00;;;;;;;23.59;100.00;101405.81;5092540;28;20549;-47
2023/08/17 18:13:52;;;;;;;18.90;8.50;;;;;;;23.54;100.00;101406.47;5097955;28;20491;-45
2023/08/17 18:16:19;;;;;;;17.58;8.32;;;;;;;23.55;100.00;101402.38;5088630;28;20076;-43
2023/08/17 18:18:45;;;;;;;16.95;8.60;;;;;;;23.54;100.00;101410.09;5088948;28;20056;-43
2023/08/17 18:21:12;;;;;;;25.90;14.35;;;;;;;23.77;100.00;101408.44;5100175;28;20097;-46
2023/08/17 18:23:38;;;;;;;31.83;19.35;;;;;;;23.84;100.00;101408.81;5076689;28;20101;-44
2023/08/17 18:26:05;;;;;;;25.02;14.65;;;;;;;23.78;100.00;101410.00;5096968;28;20052;-48
2023/08/17 18:28:32;;;;;;;24.10;11.35;;;;;;;23.76;100.00;101419.00;5094939;28;20091;-42
2023/08/17 18:30:58;;;;;;;20.77;11.52;;;;;;;23.77;100.00;101422.63;5093415;28;20047;-46
2023/08/17 18:33:25;;;;;;;19.90;10.13;;;;;;;23.79;100.00;101420.06;5099479;28;20048;-46
2023/08/17 18:35:52;;;;;;;21.20;10.38;;;;;;;23.74;100.00;101418.72;5099734;28;20051;-43
2023/08/17 18:38:22;;;;;;;19.20;9.82;;;;;;;23.72;100.00;101409.13;5092101;28;20050;-45
2023/08/17 18:40:48;;;;;;;18.73;8.57;;;;;;;23.71;100.00;101410.41;5092449;28;20180;-45
2023/08/17 18:43:18;;;;;;;15.65;8.73;;;;;;;23.66;100.00;101402.59;5093464;28;20048;-44
2023/08/17 18:45:44;;;;;;;16.05;8.18;;;;;;;23.65;100.00;101407.47;5101969;28;20056;-48
2023/08/17 18:48:11;;;;;;;16.38;9.45;;;;;;;23.67;100.00;101409.81;5095385;28;20083;-45
2023/08/17 18:50:38;;;;;;;15.90;8.70;;;;;;;23.68;100.00;101409.34;5091812;28;20044;-47
2023/08/17 18:53:04;;;;;;;15.93;8.73;;;;;;;23.72;100.00;101414.78;5092020;28;20820;-43
2023/08/17 18:55:32;;;;;;;16.67;8.35;;;;;;;23.75;100.00;101400.41;5101426;28;20048;-44
2023/08/17 18:57:58;;;;;;;14.85;8.35;;;;;;;23.79;100.00;101420.06;5091730;28;20071;-45
2023/08/17 19:00:25;;;;;;;17.20;8.60;;;;;;;23.79;100.00;101423.69;5093138;28;20043;-47
2023/08/17 19:02:51;;;;;;;14.98;8.50;;;;;;;23.80;100.00;101424.50;5095514;28;20040;-42
2023/08/17 19:05:18;;;;;;;18.00;8.52;;;;;;;23.77;100.00;101422.63;5093891;28;20097;-44
2023/08/17 19:07:45;;;;;;;15.38;7.22;;;;;;;23.80;100.00;101424.50;5100399;28;20043;-43
2023/08/17 19:10:11;;;;;;;15.73;7.85;;;;;;;23.82;100.00;101421.91;5091668;28;20455;-47
2023/08/17 19:12:38;;;;;;;15.05;7.93;;;;;;;23.80;100.00;101433.00;5091817;28;20485;-44
2023/08/17 19:15:05;;;;;;;15.57;7.43;;;;;;;23.79;100.00;101435.06;5098018;28;20747;-43
2023/08/17 19:17:31;;;;;;;15.30;7.88;;;;;;;23.81;100.00;101443.09;5092191;28;20471;-43